Share

Yellowstone National Park, WY

Yellowstone (KP60) Elev 7835 ft | 44.54 °N, 110.42 °W | Change Station

Current weather conditions updated 5 minutes ago

Partly Cloudy
Partly Cloudy
42 °F
Feels Like 42 °F
N
0
Wind Variable Wind from North
Gusts 7 mph
Sunrise 6:28 AM
Sunset 8:13 PM
Moon Waning Gibbous

Tomorrow is forecast to be Warmer than today.

Pressure 30.19 in
Visibility -9999.0 miles
Clouds
Dew Point 21 °F
Humidity 43%
Rainfall 0.00 in
Snow Depth Not available.
UV Not available.
Pollen 10.30 out of 12
Air Quality Not available.
Flu Activity Sporadic
METAR KP60 210156Z AUTO 00000KT 06/M06 A3026 RMK AO1 SLP222 T00561061

More Conditions Fewer Conditions

Pressure 30.19 in
Visibility -9999.0 miles
Clouds
Dew Point 21 °F
Humidity 43%
Rainfall 0.00 in
Snow Depth Not available.
UV Not available.
Pollen 10.30 out of 12
Air Quality Not available.
Flu Activity Sporadic
METAR KP60 210156Z AUTO 00000KT 06/M06 A3026 RMK AO1 SLP222 T00561061

More Conditions Fewer Conditions

10-Day Weather Forecast

Almanac

Astronomy

Apr. 20, 2014 Rise Set
Actual Time 6:28 AM MDT 8:13 PM MDT
Civil Twilight 5:57 AM MDT 8:44 PM MDT
Nautical Twilight 5:19 AM MDT 9:22 PM MDT
Astronomical Twilight 4:39 AM MDT 10:03 PM MDT
Moon 1:01 AM MDT (4/20) 10:48 AM MDT (4/20)
Length of Visible Light 14h 46m
Length of Day
13h 44m
Tomorrow will be 2m 55s longer.
Waning Gibbous, 64% of the Moon is Illuminated
Today
Waning Gibbous
Apr 22
Last Quarter
Apr 29
New
May 6
First Quarter
May 14
Full

Today's Extremes

State Highs State Lows

Community

  • Sun Pillar and Geese
    Sun Pillar and Geese
  • Easter Dance
    Easter Dance
  • spring skiing mount Baker WA
    spring skiing mount Baker WA
  • Morning Sun
    Morning Sun
  • Happy Easter
    Happy Easter

WunderPhotos

Upload Photos

1,703,516 photos uploaded!

WunderBlogs® & News

Nearby

Snow Depth

Station Depth Elevation
Parker Peak 95 in 9400 ft
Sylvan Lake 64 in 8420 ft
Sylvan Road 31 in 7120 ft
Thumb Divide 53 in 7980 ft
Evening Star 110 in 9200 ft

Coastal Water Temperatures

Place Temperature
No Stations Reporting

Earthquake Activity

City Distance Mag. Time & Date
No recent earthquake activity has been reported nearby.
Minimum magnitude displayed is 2.5.

Nearby Weather Stations

Station Location Temp. Windchill Dew Point Humidity Wind Precip. Elev Updated Type
MesoWest CANYON , Yellowstone National Park, WY 47 °F 47 °F - - North  at  - 0.00 in / hr 8089 ft 6:00 PM MDT MADIS
RAWS SODA BUTTE MT, Cooke City, MT 40 °F 40 °F 12 °F 31% NNW  at  1 mph 0.00 in / hr 8160 ft 7:17 PM MDT MADIS
MesoWest NORTHEAST ENTRANCE , Cooke City, MT 49 °F 49 °F - - North  at  - 0.00 in / hr 7350 ft 7:00 PM MDT MADIS
HADS TOWER FALLS RANGER STATION AT YE WY, Yellowstone National Park, WY 56 °F - 9 °F 15% NNW  at  1 mph 0.00 in / hr 6266 ft 6:15 PM MDT MADIS

Show More Stations Show Fewer Stations

What do you think?

We're not finished. Please let us know what you like, what you don't like, and what you are still missing.